Time;durP1;ratioP1;P1;durP2;ratioP2;P2;SDS_P1;SDS_P2;PMS_P1;PMS_P2;Temp;Humidity;BMP_temperature;BMP_pressure;BME280_temperature;BME280_humidity;BME280_pressure;Samples;Min_cycle;Max_cycle;Signal;HPM_P1;HPM_P2
2021/10/27 00:02:01;;;;;;;27.65;19.05;;;;;;;9.78;82.50;101003.87;2752926;84;21054;-70
2021/10/27 00:06:03;;;;;;;30.02;20.05;;;;;;;9.73;82.50;101009.48;2762059;84;21445;-70
2021/10/27 00:10:05;;;;;;;25.80;18.02;;;;;;;9.79;82.29;101009.55;2749582;85;21065;-72
2021/10/27 00:14:07;;;;;;;25.12;19.48;;;;;;;9.83;82.20;101013.23;2740365;84;21085;-71
2021/10/27 00:18:08;;;;;;;26.25;18.00;;;;;;;9.82;81.92;101025.28;2743204;84;21063;-70
2021/10/27 00:22:12;;;;;;;22.17;18.48;;;;;;;9.81;81.70;101020.44;2746021;85;21101;-72
2021/10/27 00:26:13;;;;;;;24.00;18.12;;;;;;;9.82;81.77;101030.11;2752569;84;21104;-72
2021/10/27 00:30:15;;;;;;;27.15;18.73;;;;;;;9.81;81.45;101029.73;2713742;85;21082;-71
2021/10/27 00:34:16;;;;;;;29.20;20.90;;;;;;;9.78;80.86;101029.11;2727606;85;21158;-71
2021/10/27 00:38:18;;;;;;;29.67;21.65;;;;;;;9.72;80.40;101033.02;2707006;86;21149;-70
2021/10/27 00:42:20;;;;;;;26.27;17.82;;;;;;;9.67;79.84;101033.80;2723156;86;21339;-71
2021/10/27 00:46:24;;;;;;;28.52;16.37;;;;;;;9.62;79.55;101021.28;2720490;86;21090;-72
2021/10/27 00:50:25;;;;;;;20.43;16.00;;;;;;;9.44;79.96;101016.26;2714467;86;21158;-71
2021/10/27 00:54:29;;;;;;;21.48;15.25;;;;;;;9.22;81.34;101018.95;2707063;86;21157;-71
2021/10/27 00:58:30;;;;;;;21.57;16.52;;;;;;;9.07;81.81;101015.98;2707264;86;21048;-70
2021/10/27 01:02:32;;;;;;;27.87;16.82;;;;;;;8.97;82.42;101011.25;2706963;86;21039;-71
2021/10/27 01:06:33;;;;;;;20.40;15.83;;;;;;;8.94;83.20;101012.77;2721716;86;21059;-71
2021/10/27 01:10:35;;;;;;;19.60;15.88;;;;;;;8.94;83.78;101007.92;2721393;86;21102;-71
2021/10/27 01:14:41;;;;;;;20.52;14.90;;;;;;;8.95;83.60;101014.48;2717176;86;21094;-70
2021/10/27 01:18:43;;;;;;;22.05;15.10;;;;;;;8.99;83.78;101012.48;2698710;86;21089;-72
2021/10/27 01:22:44;;;;;;;18.65;12.80;;;;;;;8.96;84.34;101006.05;2703516;86;21260;-71
2021/10/27 01:26:46;;;;;;;17.32;13.18;;;;;;;8.92;84.42;101009.37;2708343;86;21045;-70
2021/10/27 01:30:48;;;;;;;19.85;15.90;;;;;;;8.95;84.32;101023.77;2693072;86;21133;-72
2021/10/27 01:34:50;;;;;;;20.17;13.00;;;;;;;8.98;84.47;101021.41;2706518;86;21039;-71
2021/10/27 01:38:51;;;;;;;19.60;14.07;;;;;;;8.98;84.23;101020.91;2719401;86;21027;-70
2021/10/27 01:42:55;;;;;;;21.23;14.78;;;;;;;8.97;84.05;101019.20;2718133;85;21261;-71
2021/10/27 01:46:56;;;;;;;18.30;13.38;;;;;;;8.98;83.98;101012.95;2690298;86;21036;-71
2021/10/27 01:50:58;;;;;;;19.15;13.95;;;;;;;8.97;84.09;101017.88;2720190;86;21083;-71
2021/10/27 01:55:00;;;;;;;21.62;14.68;;;;;;;8.91;83.99;101006.34;2720364;86;21102;-70
2021/10/27 01:59:01;;;;;;;19.32;13.58;;;;;;;8.92;84.17;101001.41;2752642;84;21118;-70
2021/10/27 02:03:03;;;;;;;16.70;13.32;;;;;;;8.95;84.03;100999.87;2752674;84;21082;-70
2021/10/27 02:07:05;;;;;;;20.50;14.95;;;;;;;9.01;83.73;100997.31;2704072;86;21156;-70
2021/10/27 02:11:09;;;;;;;17.67;12.20;;;;;;;9.02;83.85;101001.67;2702154;86;21051;-70
2021/10/27 02:15:12;;;;;;;17.20;12.35;;;;;;;9.01;84.03;100997.31;2706723;86;21032;-70
2021/10/27 02:19:14;;;;;;;16.77;12.28;;;;;;;8.99;83.95;101000.05;2719681;86;21060;-69
2021/10/27 02:23:17;;;;;;;17.73;13.28;;;;;;;8.99;84.12;101005.36;2687486;86;21107;-71
2021/10/27 02:27:19;;;;;;;17.92;14.40;;;;;;;8.97;83.64;101004.61;2656340;88;21091;-69
2021/10/27 02:31:21;;;;;;;16.70;13.35;;;;;;;9.03;83.37;101011.80;2655824;88;21160;-71
2021/10/27 02:35:23;;;;;;;17.92;12.70;;;;;;;9.05;83.08;101015.23;2821107;77;21281;-70
2021/10/27 02:39:24;;;;;;;15.32;13.32;;;;;;;9.03;82.65;101010.47;2844611;82;21031;-71
2021/10/27 02:43:26;;;;;;;18.10;12.03;;;;;;;8.97;82.64;101015.23;2840896;82;20984;-71
2021/10/27 02:47:27;;;;;;;15.98;12.82;;;;;;;8.88;83.02;101011.84;2868609;81;21103;-71
2021/10/27 02:51:29;;;;;;;21.73;15.18;;;;;;;8.79;83.50;101009.75;2835127;81;21049;-72
2021/10/27 02:55:31;;;;;;;22.40;14.40;;;;;;;8.79;83.94;101013.27;2855550;82;21434;-72
2021/10/27 02:59:32;;;;;;;16.77;13.78;;;;;;;8.77;84.43;101011.20;2847062;82;21636;-79
2021/10/27 03:03:34;;;;;;;20.65;14.43;;;;;;;8.76;84.31;101017.91;2832538;82;21047;-72
2021/10/27 03:07:36;;;;;;;20.75;12.10;;;;;;;8.73;84.68;101010.98;2861071;81;21060;-73
2021/10/27 03:11:37;;;;;;;18.07;13.93;;;;;;;8.70;85.17;101016.03;2856485;81;21052;-70
2021/10/27 03:15:39;;;;;;;27.82;14.43;;;;;;;8.67;85.43;101020.20;2861783;81;21046;-71
2021/10/27 03:19:41;;;;;;;18.37;14.05;;;;;;;8.65;85.69;101018.12;2852537;82;21086;-71
2021/10/27 03:23:42;;;;;;;18.82;12.82;;;;;;;8.71;85.09;101029.66;2849032;81;21035;-71
2021/10/27 03:27:44;;;;;;;19.12;13.72;;;;;;;8.80;85.09;101023.39;2852882;81;21078;-74
2021/10/27 03:31:45;;;;;;;17.65;13.68;;;;;;;8.83;84.84;101025.84;2866742;81;21125;-76
2021/10/27 03:35:47;;;;;;;17.12;12.37;;;;;;;8.85;84.72;101032.77;2877862;81;21125;-73
2021/10/27 03:39:49;;;;;;;20.12;12.10;;;;;;;8.83;84.46;101025.84;2899528;81;21047;-76
2021/10/27 03:43:51;;;;;;;24.18;14.63;;;;;;;8.79;84.58;101027.86;2863767;82;21051;-73
2021/10/27 03:47:53;;;;;;;21.12;12.88;;;;;;;8.73;84.74;101019.44;2869181;81;21050;-76
2021/10/27 03:51:54;;;;;;;20.62;14.15;;;;;;;8.73;84.54;101022.92;2861182;81;21086;-78
2021/10/27 03:55:56;;;;;;;25.60;14.20;;;;;;;8.64;85.15;101021.69;2866145;82;21061;-75
2021/10/27 03:59:59;;;;;;;15.28;12.90;;;;;;;8.65;85.06;101022.09;2864642;81;21414;-73
2021/10/27 04:04:00;;;;;;;21.82;16.17;;;;;;;8.61;85.36;101028.52;2868694;81;21041;-76
2021/10/27 04:08:02;;;;;;;19.50;15.40;;;;;;;8.63;85.16;101027.95;2855156;81;21551;-74
2021/10/27 04:12:04;;;;;;;19.85;15.50;;;;;;;8.57;85.92;101033.64;2865414;81;21085;-70
2021/10/27 04:16:06;;;;;;;20.57;14.90;;;;;;;8.50;86.76;101038.95;2873715;81;21059;-71
2021/10/27 04:20:09;;;;;;;19.20;14.13;;;;;;;8.51;86.96;101042.81;2874767;81;21086;-72
2021/10/27 04:24:11;;;;;;;22.27;14.43;;;;;;;8.55;87.12;101035.53;2874236;81;21098;-73
2021/10/27 04:28:13;;;;;;;17.48;12.75;;;;;;;8.59;87.00;101037.53;2867482;81;21421;-72
2021/10/27 04:32:16;;;;;;;16.57;13.28;;;;;;;8.61;86.99;101037.80;2865721;81;21058;-72
2021/10/27 04:36:18;;;;;;;22.20;16.57;;;;;;;8.68;86.32;101044.45;2866361;80;21034;-73
2021/10/27 04:40:20;;;;;;;17.25;14.33;;;;;;;8.67;86.06;101042.75;2874665;80;21062;-73
2021/10/27 04:44:22;;;;;;;19.20;15.38;;;;;;;8.60;86.25;101037.42;2859930;81;21594;-72
2021/10/27 04:48:24;;;;;;;19.37;14.63;;;;;;;8.61;86.34;101039.62;2847089;82;21144;-74
2021/10/27 04:52:26;;;;;;;18.95;14.07;;;;;;;8.61;86.01;101029.01;2884741;81;21041;-72
2021/10/27 04:56:30;;;;;;;23.15;15.75;;;;;;;8.61;85.98;101033.82;2842681;80;21064;-71
2021/10/27 05:00:31;;;;;;;22.45;16.67;;;;;;;8.64;86.09;101034.95;2804823;83;20990;-72
2021/10/27 05:04:33;;;;;;;21.20;16.85;;;;;;;8.69;86.18;101040.84;2846042;81;21085;-74
2021/10/27 05:08:35;;;;;;;35.33;16.48;;;;;;;8.73;85.69;101034.02;2853827;82;21041;-73
2021/10/27 05:12:37;;;;;;;21.95;15.78;;;;;;;8.75;85.78;101050.23;2854915;81;21080;-72
2021/10/27 05:16:38;;;;;;;22.37;15.48;;;;;;;8.77;85.50;101041.70;2851662;82;21092;-72
2021/10/27 05:20:40;;;;;;;27.77;15.85;;;;;;;8.79;85.49;101041.59;2850200;80;21119;-72
2021/10/27 05:24:42;;;;;;;23.77;18.07;;;;;;;8.85;85.47;101035.92;2852887;81;21122;-72
2021/10/27 05:28:43;;;;;;;21.57;14.85;;;;;;;8.91;85.17;101032.00;2879122;80;21056;-72
2021/10/27 05:32:46;;;;;;;19.50;12.73;;;;;;;8.91;85.52;101030.22;2879646;81;21452;-72
2021/10/27 05:36:51;;;;;;;17.10;12.58;;;;;;;8.93;85.71;101038.93;2831195;77;21168;-71
2021/10/27 05:40:53;;;;;;;21.05;14.73;;;;;;;8.98;85.71;101043.95;2895661;79;21042;-71
2021/10/27 05:44:57;;;;;;;18.10;13.13;;;;;;;9.07;85.17;101046.02;2927890;79;21006;-71
2021/10/27 05:49:04;;;;;;;25.05;15.75;;;;;;;9.09;85.03;101045.93;2932540;79;21026;-70
2021/10/27 05:57:22;;;;;;;20.88;14.07;;;;;;;9.14;84.78;101047.34;2940413;79;21011;-70
2021/10/27 06:01:23;;;;;;;16.65;12.73;;;;;;;9.21;84.66;101041.64;2925286;79;21007;-70
2021/10/27 06:05:26;;;;;;;22.80;11.65;;;;;;;9.24;85.02;101040.97;2912325;78;21146;-72
2021/10/27 06:09:28;;;;;;;18.50;13.28;;;;;;;9.32;85.31;101052.40;2871395;81;21058;-72
2021/10/27 06:13:34;;;;;;;15.83;11.35;;;;;;;9.48;85.05;101059.38;2890379;81;21062;-73
2021/10/27 06:17:36;;;;;;;16.62;12.53;;;;;;;9.62;84.85;101067.77;2893180;80;21019;-73
2021/10/27 06:21:39;;;;;;;26.02;14.43;;;;;;;9.77;84.49;101069.42;2891587;81;21013;-72
2021/10/27 06:25:40;;;;;;;23.45;13.55;;;;;;;9.84;84.51;101073.40;2892280;79;21023;-71
2021/10/27 06:29:56;;;;;;;19.17;10.78;;;;;;;9.96;84.07;101077.05;2891221;81;21063;-74
2021/10/27 06:34:04;;;;;;;19.87;13.58;;;;;;;10.07;83.83;101078.98;2886464;81;21189;-74
2021/10/27 06:50:24;;;;;;;17.57;11.50;;;;;;;10.42;82.79;101077.10;2828291;81;21007;-72
2021/10/27 06:54:26;;;;;;;19.00;11.05;;;;;;;10.49;82.50;101081.49;2856173;81;21073;-75
2021/10/27 06:58:31;;;;;;;18.92;13.58;;;;;;;10.61;82.48;101077.63;2854242;81;21047;-73
2021/10/27 07:03:03;;;;;;;18.15;11.97;;;;;;;10.77;82.11;101088.91;2854257;81;21063;-72
2021/10/27 07:15:36;;;;;;;22.77;16.32;;;;;;;11.20;81.42;101106.32;2853276;81;21070;-74
2021/10/27 07:19:37;;;;;;;21.50;14.43;;;;;;;11.41;81.77;101105.73;2864631;81;20960;-75
2021/10/27 07:27:51;;;;;;;18.12;14.78;;;;;;;11.79;81.13;101107.41;2789286;83;21055;-70
2021/10/27 07:31:53;;;;;;;21.20;15.10;;;;;;;11.96;80.33;101109.27;2798752;81;21579;-71
2021/10/27 07:36:03;;;;;;;20.77;14.80;;;;;;;12.10;79.90;101106.96;2799936;83;21046;-74
2021/10/27 07:44:23;;;;;;;23.27;16.60;;;;;;;12.46;78.71;101102.93;2794266;83;21051;-74
2021/10/27 07:48:25;;;;;;;24.50;15.85;;;;;;;12.67;78.77;101111.08;2787118;83;21055;-72
2021/10/27 07:52:26;;;;;;;22.00;15.30;;;;;;;12.82;78.00;101111.22;2792441;83;21055;-72
2021/10/27 07:56:30;;;;;;;17.77;13.15;;;;;;;12.99;77.96;101113.05;2791263;83;21054;-73
2021/10/27 08:00:31;;;;;;;21.30;15.80;;;;;;;13.17;77.41;101106.75;2767541;83;21064;-74
2021/10/27 08:04:35;;;;;;;24.52;15.48;;;;;;;13.21;76.96;101112.20;2786964;83;21090;-75
2021/10/27 08:08:37;;;;;;;20.88;16.17;;;;;;;13.30;76.29;101111.95;2802126;82;21068;-74
2021/10/27 08:12:40;;;;;;;20.32;14.83;;;;;;;13.36;76.57;101111.92;2794041;83;21568;-74
2021/10/27 08:16:41;;;;;;;16.48;13.83;;;;;;;13.50;76.88;101092.98;2795342;83;21095;-75
2021/10/27 08:20:46;;;;;;;24.55;15.35;;;;;;;13.68;76.51;101095.13;2809445;83;21015;-73
2021/10/27 08:24:50;;;;;;;20.00;13.93;;;;;;;13.85;75.97;101087.90;2787289;83;21052;-76
2021/10/27 08:32:55;;;;;;;25.45;14.95;;;;;;;14.34;75.37;101095.94;2787544;82;21050;-73
2021/10/27 08:36:56;;;;;;;18.45;12.63;;;;;;;14.70;74.60;101102.63;2721843;85;21005;-76
2021/10/27 08:40:59;;;;;;;15.98;12.33;;;;;;;15.03;73.77;101103.02;2696009;86;21103;-77
2021/10/27 08:45:01;;;;;;;16.25;11.65;;;;;;;15.36;73.00;101106.39;2786808;83;21066;-71
2021/10/27 08:49:05;;;;;;;17.45;12.58;;;;;;;15.45;71.49;101108.22;2798869;83;21051;-73
2021/10/27 08:53:07;;;;;;;17.62;11.33;;;;;;;15.54;70.19;101112.78;2795323;83;21083;-77
2021/10/27 08:57:10;;;;;;;14.15;11.45;;;;;;;15.57;71.01;101107.61;2803232;83;21076;-71
2021/10/27 09:01:22;;;;;;;18.02;10.43;;;;;;;15.68;71.12;101111.52;2800668;83;21122;-76
2021/10/27 09:06:04;;;;;;;14.75;11.03;;;;;;;15.69;70.28;101106.52;2799739;83;21048;-75
2021/10/27 09:35:30;;;;;;;30.60;12.43;;;;;;;16.36;68.09;101117.05;2788003;83;21102;-78
2021/10/27 10:05:28;;;;;;;14.13;10.60;;;;;;;16.85;66.81;101110.20;2776039;83;21032;-76
2021/10/27 10:09:32;;;;;;;6.37;3.60;;;;;;;16.90;66.84;101123.22;2787814;82;21079;-73
2021/10/27 10:13:35;;;;;;;3.67;2.30;;;;;;;16.95;66.94;101114.20;2788393;83;21141;-76
2021/10/27 10:17:42;;;;;;;6.08;2.47;;;;;;;16.90;64.61;101119.18;2789550;83;21154;-77
2021/10/27 10:21:48;;;;;;;4.78;2.75;;;;;;;16.76;64.72;101119.99;2795989;83;21085;-72
2021/10/27 10:25:55;;;;;;;2.10;1.45;;;;;;;16.77;66.29;101116.83;2787087;83;21097;-75
2021/10/27 10:30:00;;;;;;;4.65;2.35;;;;;;;16.68;64.54;101104.60;2782214;83;21076;-75
2021/10/27 10:34:04;;;;;;;4.90;2.37;;;;;;;16.78;65.18;101107.77;2774906;83;21096;-73
2021/10/27 10:38:32;;;;;;;2.50;2.30;;;;;;;16.76;64.09;101103.05;2804619;83;21050;-73
2021/10/27 10:43:08;;;;;;;6.17;2.20;;;;;;;16.79;65.24;101104.92;2808292;82;21043;-74
2021/10/27 11:22:53;;;;;;;9.25;4.35;;;;;;;16.95;64.19;101124.47;2806875;82;21016;-76
2021/10/27 11:39:55;;;;;;;4.03;2.77;;;;;;;17.22;65.45;101100.48;2789584;83;21070;-71
2021/10/27 11:43:57;;;;;;;5.25;3.10;;;;;;;17.31;66.01;101087.47;2787318;83;21035;-75
2021/10/27 11:48:06;;;;;;;4.33;1.92;;;;;;;17.28;65.31;101092.63;2791321;83;21097;-76
2021/10/27 11:52:07;;;;;;;3.40;2.02;;;;;;;17.26;66.26;101083.05;2788706;83;21078;-75
2021/10/27 11:56:22;;;;;;;13.05;3.05;;;;;;;17.08;65.72;101081.16;2785392;83;21123;-77
2021/10/27 12:04:37;;;;;;;2.17;1.12;;;;;;;17.07;66.56;101081.30;2806147;82;21911;-72
2021/10/27 12:13:01;;;;;;;3.42;2.15;;;;;;;17.03;67.50;101065.13;2793578;82;21063;-76
2021/10/27 12:17:28;;;;;;;3.50;1.50;;;;;;;16.92;66.72;101072.38;2799764;83;21129;-76
2021/10/27 12:21:29;;;;;;;2.75;1.65;;;;;;;16.92;67.07;101064.31;2797505;83;21487;-73
2021/10/27 12:25:31;;;;;;;2.83;2.02;;;;;;;16.92;67.47;101053.56;2791925;83;21017;-74
2021/10/27 12:29:36;;;;;;;5.45;2.83;;;;;;;16.92;67.08;101054.91;2791173;83;21135;-73
2021/10/27 12:33:42;;;;;;;2.85;1.15;;;;;;;16.96;67.92;101053.61;2811517;83;21064;-73
2021/10/27 12:37:54;;;;;;;8.20;3.80;;;;;;;16.95;66.96;101047.02;2792595;83;21065;-73
2021/10/27 12:42:08;;;;;;;2.70;1.80;;;;;;;16.91;67.44;101053.22;2792040;83;21053;-71
2021/10/27 12:46:19;;;;;;;4.43;2.63;;;;;;;16.96;67.95;101055.43;2792880;83;21047;-74
2021/10/27 12:50:21;;;;;;;5.25;1.70;;;;;;;16.94;67.23;101052.05;2799209;82;21055;-74
2021/10/27 12:54:30;;;;;;;14.03;2.77;;;;;;;16.98;68.43;101051.64;2802491;83;21123;-72
2021/10/27 12:58:32;;;;;;;11.53;3.92;;;;;;;16.97;68.55;101052.61;2797627;82;21094;-69
2021/10/27 13:02:38;;;;;;;4.10;3.12;;;;;;;16.95;68.16;101061.80;2804733;83;21016;-70
2021/10/27 13:15:32;;;;;;;4.92;3.42;;;;;;;16.82;68.55;101064.83;2804053;83;22556;-71
2021/10/27 13:32:08;;;;;;;5.28;2.47;;;;;;;16.76;69.33;101059.55;2811038;82;21109;-73
2021/10/27 13:36:11;;;;;;;5.70;3.05;;;;;;;16.59;69.69;101054.94;2799982;83;21141;-73
2021/10/27 13:40:14;;;;;;;4.78;2.75;;;;;;;16.44;69.31;101062.62;2818447;82;21626;-70
2021/10/27 13:44:20;;;;;;;8.65;3.00;;;;;;;16.39;69.98;101067.08;2792359;82;21135;-71
2021/10/27 13:48:28;;;;;;;9.25;3.40;;;;;;;16.43;70.41;101065.83;2788608;83;21116;-70
2021/10/27 14:09:54;;;;;;;14.58;3.77;;;;;;;16.39;70.10;101092.11;2782046;83;21055;-70
2021/10/27 14:39:48;;;;;;;5.55;4.05;;;;;;;15.94;71.90;101087.36;2821151;82;21063;-71
2021/10/27 15:23:02;;;;;;;7.17;4.90;;;;;;;14.64;76.21;101076.39;2807686;82;21079;-72
2021/10/27 15:31:25;;;;;;;7.08;5.35;;;;;;;14.52;76.18;101080.98;2809496;83;21057;-70
2021/10/27 15:52:24;;;;;;;5.40;3.15;;;;;;;14.13;76.55;101077.55;2852445;82;21079;-72
2021/10/27 15:56:26;;;;;;;2.92;2.58;;;;;;;13.97;76.85;101075.83;2839393;80;21357;-72
2021/10/27 16:00:27;;;;;;;6.40;3.05;;;;;;;13.85;76.91;101079.88;2845161;81;21098;-71
2021/10/27 16:04:29;;;;;;;10.65;5.85;;;;;;;13.80;76.60;101086.10;2837010;81;21342;-71
2021/10/27 16:08:33;;;;;;;9.40;5.45;;;;;;;13.76;76.46;101081.99;2810040;82;20980;-72
2021/10/27 16:12:35;;;;;;;7.70;5.20;;;;;;;13.69;76.32;101079.45;2736383;85;21027;-70
2021/10/27 16:16:36;;;;;;;12.35;4.70;;;;;;;13.63;76.17;101087.98;2774699;84;21109;-70
2021/10/27 16:20:41;;;;;;;10.53;4.40;;;;;;;13.51;76.62;101082.66;2794166;84;21407;-71
2021/10/27 16:24:43;;;;;;;11.38;3.42;;;;;;;13.45;76.84;101086.31;2845669;81;21051;-71
2021/10/27 16:28:45;;;;;;;4.67;2.75;;;;;;;13.41;76.84;101095.88;2806166;83;21086;-73
2021/10/27 16:32:47;;;;;;;4.22;2.15;;;;;;;13.36;76.92;101093.22;2848747;81;21180;-71
2021/10/27 16:36:49;;;;;;;5.22;3.27;;;;;;;13.32;76.97;101095.78;2840263;81;21346;-70
2021/10/27 16:40:51;;;;;;;9.45;3.92;;;;;;;13.29;77.22;101097.73;2859352;81;21157;-71
2021/10/27 16:44:54;;;;;;;6.58;3.20;;;;;;;13.22;77.94;101101.88;2865606;81;21025;-73
2021/10/27 16:48:55;;;;;;;26.77;4.80;;;;;;;13.15;78.27;101103.33;2855982;81;21067;-73
2021/10/27 16:52:59;;;;;;;18.32;4.75;;;;;;;13.10;78.15;101102.85;2847276;82;21020;-72
2021/10/27 16:57:00;;;;;;;9.18;5.00;;;;;;;13.08;77.76;101111.47;2853984;81;21031;-71
2021/10/27 17:01:02;;;;;;;22.40;8.35;;;;;;;13.06;77.54;101120.09;2848418;81;21016;-71
2021/10/27 17:05:06;;;;;;;12.82;7.50;;;;;;;13.05;77.31;101118.40;2858643;81;21031;-72
2021/10/27 17:09:07;;;;;;;12.63;8.08;;;;;;;13.06;77.33;101128.11;2845214;81;21109;-73
2021/10/27 17:13:09;;;;;;;15.15;8.83;;;;;;;13.03;77.15;101129.19;2852449;82;20998;-71
2021/10/27 17:17:10;;;;;;;14.85;7.75;;;;;;;12.97;76.93;101135.89;2858491;82;21045;-69
2021/10/27 17:21:13;;;;;;;11.38;7.92;;;;;;;12.91;77.06;101139.52;2852006;81;21056;-70
2021/10/27 17:25:16;;;;;;;12.18;8.85;;;;;;;12.74;77.20;101145.69;2847606;81;20999;-70
2021/10/27 17:29:18;;;;;;;12.55;8.95;;;;;;;12.51;78.23;101143.45;2764769;82;21040;-73
2021/10/27 17:33:22;;;;;;;25.43;18.17;;;;;;;12.31;80.19;101146.31;2797542;84;21040;-76
2021/10/27 17:37:24;;;;;;;35.30;24.90;;;;;;;12.18;80.92;101149.03;2795339;83;21099;-77
2021/10/27 17:41:27;;;;;;;46.10;29.37;;;;;;;12.06;81.00;101144.13;2783155;84;21102;-76
2021/10/27 17:45:37;;;;;;;46.35;29.55;;;;;;;12.01;80.53;101156.50;2771105;84;21083;-75
2021/10/27 18:02:07;;;;;;;46.95;28.35;;;;;;;11.47;82.67;101150.57;2768803;84;21061;-74
2021/10/27 18:06:09;;;;;;;50.23;32.67;;;;;;;11.45;82.53;101148.50;2774794;84;21012;-76
2021/10/27 18:10:14;;;;;;;40.35;28.65;;;;;;;11.36;82.73;101154.47;2769014;84;21045;-75
2021/10/27 18:14:20;;;;;;;45.12;27.35;;;;;;;11.32;82.35;101153.86;2766341;84;21668;-77
2021/10/27 18:18:32;;;;;;;;;;;;;;;11.26;82.43;101149.81;2795675;84;21056;-79
2021/10/27 18:22:33;;;;;;;35.03;26.70;;;;;;;11.18;83.30;101148.16;2808767;83;20085;-81
2021/10/27 18:39:21;;;;;;;43.28;29.50;;;;;;;11.08;83.00;101157.27;2848131;82;21066;-79
2021/10/27 18:43:29;;;;;;;39.50;27.55;;;;;;;11.13;82.57;101163.62;2842783;82;21050;-76
2021/10/27 18:47:30;;;;;;;42.50;31.10;;;;;;;11.12;82.47;101154.80;2862745;82;21011;-78
2021/10/27 18:51:36;;;;;;;42.90;30.70;;;;;;;11.09;81.99;101168.80;2858985;81;21124;-79
2021/10/27 19:12:40;;;;;;;50.67;36.35;;;;;;;10.78;83.36;101168.25;2851889;82;21089;-76
2021/10/27 19:16:38;;;;;;;54.63;34.27;;;;;;;10.76;83.74;101168.83;2860292;81;21053;-74
2021/10/27 19:20:40;;;;;;;44.40;31.57;;;;;;;10.73;83.82;101165.06;2833427;81;21026;-78
2021/10/27 19:24:55;;;;;;;36.88;28.47;;;;;;;10.67;84.26;101168.98;2803665;84;21061;-78
2021/10/27 19:29:04;;;;;;;50.85;34.80;;;;;;;10.64;83.90;101170.06;2868248;82;21049;-76
2021/10/27 19:33:11;;;;;;;50.17;35.00;;;;;;;10.57;84.45;101166.97;2853279;82;21117;-75
2021/10/27 20:07:34;;;;;;;49.27;34.03;;;;;;;10.25;84.99;101178.41;2843089;81;21100;-77
2021/10/27 20:54:12;;;;;;;193.75;109.75;;;;;;;9.73;85.85;101170.22;2850076;82;21046;-71
2021/10/27 21:15:03;;;;;;;146.07;81.25;;;;;;;9.13;88.21;101165.55;2731445;86;21113;-68
2021/10/27 21:19:06;;;;;;;105.40;62.03;;;;;;;9.08;88.45;101163.66;2737250;85;21065;-68
2021/10/27 21:23:09;;;;;;;111.35;56.73;;;;;;;9.24;87.78;101168.86;2851725;82;21115;-71
2021/10/27 21:27:20;;;;;;;107.87;53.10;;;;;;;9.34;86.75;101162.05;2860239;82;20984;-67
2021/10/27 21:44:02;;;;;;;105.12;55.05;;;;;;;9.28;85.11;101156.64;2753935;84;21097;-70
2021/10/27 21:48:05;;;;;;;109.32;58.83;;;;;;;9.22;84.90;101154.34;2764151;84;21015;-69
2021/10/27 21:52:09;;;;;;;89.17;51.35;;;;;;;9.25;85.23;101156.83;2806923;84;21087;-68
2021/10/27 21:56:15;;;;;;;91.00;54.15;;;;;;;9.21;84.88;101151.80;2782540;84;21056;-69
2021/10/27 22:00:16;;;;;;;;;;;;;;;9.14;84.16;101156.63;2746626;85;21126;-68
2021/10/27 22:04:20;;;;;;;79.27;46.23;;;;;;;9.00;85.27;101157.49;2748651;85;20149;-70
2021/10/27 22:08:23;;;;;;;62.08;34.90;;;;;;;8.92;85.40;101157.95;2806283;83;21019;-67
2021/10/27 22:12:25;;;;;;;55.48;34.03;;;;;;;8.94;84.73;101153.41;2811280;84;21429;-68
2021/10/27 22:16:27;;;;;;;47.43;31.27;;;;;;;8.88;83.90;101157.77;2798242;84;21051;-68
2021/10/27 22:20:29;;;;;;;65.35;37.90;;;;;;;8.82;83.46;101151.48;2755222;84;21076;-68
2021/10/27 22:24:31;;;;;;;98.00;49.73;;;;;;;8.79;83.15;101151.22;2810328;84;21072;-68
2021/10/27 22:28:34;;;;;;;60.45;36.68;;;;;;;8.65;84.30;101147.22;2856969;82;21169;-70
2021/10/27 22:32:37;;;;;;;43.10;32.17;;;;;;;8.57;84.67;101149.87;2875106;81;21111;-69
2021/10/27 22:36:42;;;;;;;46.90;34.83;;;;;;;8.47;83.93;101151.31;2855560;82;21147;-67
2021/10/27 22:40:43;;;;;;;49.60;35.43;;;;;;;8.46;84.30;101139.00;2848488;82;21103;-68
2021/10/27 22:44:45;;;;;;;52.30;35.25;;;;;;;8.54;84.24;101137.25;2863142;82;21060;-68
2021/10/27 22:48:46;;;;;;;45.20;32.35;;;;;;;8.60;83.79;101146.64;2861008;82;21552;-70
2021/10/27 22:52:51;;;;;;;62.23;39.38;;;;;;;8.62;82.92;101146.91;2844472;82;21028;-68
2021/10/27 22:56:51;;;;;;;51.20;31.57;;;;;;;8.55;82.77;101141.16;2767368;85;21599;-68
2021/10/27 23:01:06;;;;;;;46.35;29.02;;;;;;;8.54;81.55;101137.25;2764887;84;21367;-68
2021/10/27 23:09:31;;;;;;;36.75;25.62;;;;;;;8.24;87.83;101143.38;2767380;84;21025;-68
2021/10/27 23:14:05;;;;;;;44.58;28.57;;;;;;;8.17;89.60;101139.38;2766691;84;21063;-67
2021/10/27 23:43:48;;;;;;;46.18;31.10;;;;;;;7.69;89.54;101135.02;2846784;81;21097;-67
2021/10/27 23:47:48;;;;;;;47.27;28.87;;;;;;;7.76;88.40;101126.23;2849207;82;21086;-69
2021/10/27 23:51:54;;;;;;;45.23;27.87;;;;;;;7.72;86.79;101125.09;2864062;82;21050;-68
2021/10/27 23:56:03;;;;;;;40.78;27.58;;;;;;;7.79;87.05;101129.57;2736287;85;21058;-68
